createdAt,value
2023-04-27T00:01:42.144Z,100
2023-04-27T00:02:42.180Z,100
2023-04-27T00:03:42.195Z,100
2023-04-27T00:04:42.136Z,100
2023-04-27T00:05:42.219Z,100
2023-04-27T00:06:42.049Z,100
2023-04-27T00:07:42.091Z,100
2023-04-27T00:08:42.049Z,100
2023-04-27T00:09:42.048Z,100
2023-04-27T00:10:42.055Z,100
2023-04-27T00:11:42.052Z,100
2023-04-27T00:12:42.077Z,100
2023-04-27T00:13:42.059Z,100
2023-04-27T00:14:42.046Z,100
2023-04-27T00:15:42.056Z,100
2023-04-27T00:16:42.067Z,100
2023-04-27T00:17:42.111Z,100
2023-04-27T00:18:42.992Z,100
2023-04-27T00:19:46.290Z,100
2023-04-27T00:20:49.274Z,100
2023-04-27T00:22:42.154Z,100
2023-04-27T00:23:42.046Z,100
2023-04-27T00:24:42.063Z,100
2023-04-27T00:25:42.063Z,100
2023-04-27T00:26:42.200Z,100
2023-04-27T00:27:42.113Z,100
2023-04-27T00:28:42.057Z,100
2023-04-27T00:29:42.056Z,100
2023-04-27T00:30:42.058Z,100
2023-04-27T00:31:42.099Z,100
2023-04-27T00:32:42.099Z,100
2023-04-27T00:33:42.062Z,100
2023-04-27T00:34:42.063Z,100
2023-04-27T00:35:42.053Z,100
2023-04-27T00:36:42.080Z,100
2023-04-27T00:37:42.058Z,100
2023-04-27T00:38:42.061Z,100
2023-04-27T00:39:43.050Z,100
2023-04-27T00:40:46.384Z,100
2023-04-27T00:41:49.358Z,100
2023-04-27T00:43:42.059Z,100
2023-04-27T00:44:42.060Z,100
2023-04-27T00:45:42.056Z,100
2023-04-27T00:46:42.071Z,100
2023-04-27T00:47:42.252Z,100
2023-04-27T00:48:42.054Z,100
2023-04-27T00:49:42.053Z,100
2023-04-27T00:50:42.102Z,100
2023-04-27T00:51:42.071Z,100
2023-04-27T00:52:42.062Z,100
2023-04-27T00:53:42.102Z,100
2023-04-27T00:54:42.054Z,100
2023-04-27T00:55:42.060Z,100
2023-04-27T00:56:42.075Z,100
2023-04-27T00:57:42.065Z,100
2023-04-27T00:58:42.054Z,100
2023-04-27T00:59:42.063Z,100
2023-04-27T01:00:43.611Z,100
2023-04-27T01:01:46.629Z,100
2023-04-27T01:02:49.618Z,100
2023-04-27T01:04:42.336Z,100
2023-04-27T01:05:42.060Z,100
2023-04-27T01:06:42.047Z,100
2023-04-27T01:07:42.065Z,100
2023-04-27T01:08:42.052Z,100
2023-04-27T01:09:42.042Z,100
2023-04-27T01:10:42.048Z,100
2023-04-27T01:11:42.099Z,100
2023-04-27T01:12:42.068Z,100
2023-04-27T01:13:42.063Z,100
2023-04-27T01:14:42.172Z,100
2023-04-27T01:15:42.058Z,100
2023-04-27T01:16:42.251Z,100
2023-04-27T01:17:42.090Z,100
2023-04-27T01:18:42.056Z,100
2023-04-27T01:19:42.059Z,100
2023-04-27T01:20:42.056Z,100
2023-04-27T01:21:43.207Z,100
2023-04-27T01:22:46.575Z,100
2023-04-27T01:23:49.585Z,100
2023-04-27T01:25:42.076Z,100
2023-04-27T01:26:42.056Z,100
2023-04-27T01:27:42.047Z,100
2023-04-27T01:28:42.046Z,100
2023-04-27T01:29:42.044Z,100
2023-04-27T01:30:42.074Z,100
2023-04-27T01:31:42.084Z,100
2023-04-27T01:32:42.083Z,100
2023-04-27T01:33:42.061Z,100
2023-04-27T01:34:42.048Z,100
2023-04-27T01:35:42.061Z,100
2023-04-27T01:36:42.059Z,100
2023-04-27T01:37:42.048Z,100
2023-04-27T01:38:42.061Z,100
2023-04-27T01:39:42.114Z,100
2023-04-27T01:40:42.048Z,100
2023-04-27T01:41:42.041Z,100
2023-04-27T01:42:43.317Z,100
2023-04-27T01:43:46.690Z,100
2023-04-27T01:44:49.639Z,100
2023-04-27T01:46:42.155Z,100
2023-04-27T01:47:42.110Z,100
2023-04-27T01:48:42.059Z,100
2023-04-27T01:49:42.057Z,100
2023-04-27T01:50:42.058Z,100
2023-04-27T01:51:42.084Z,100
2023-04-27T01:52:42.051Z,100
2023-04-27T01:53:42.063Z,100
2023-04-27T01:54:42.061Z,100
2023-04-27T01:55:42.056Z,100
2023-04-27T01:56:42.103Z,100
2023-04-27T01:57:42.070Z,100
2023-04-27T01:58:42.083Z,100
2023-04-27T01:59:42.055Z,100
2023-04-27T02:00:42.242Z,100
2023-04-27T02:01:42.133Z,100
2023-04-27T02:02:42.175Z,100
2023-04-27T02:03:43.576Z,100
2023-04-27T02:04:46.900Z,100
2023-04-27T02:05:48.191Z,100
2023-04-27T02:07:42.055Z,100
2023-04-27T02:08:42.049Z,100
2023-04-27T02:09:42.077Z,100
2023-04-27T02:10:42.058Z,100
2023-04-27T02:11:42.074Z,100
2023-04-27T02:12:42.060Z,100
2023-04-27T02:13:42.054Z,100
2023-04-27T02:14:42.056Z,100
2023-04-27T02:15:42.065Z,100
2023-04-27T02:16:42.104Z,100
2023-04-27T02:17:42.116Z,100
2023-04-27T02:18:42.067Z,100
2023-04-27T02:19:42.052Z,100
2023-04-27T02:20:42.106Z,100
2023-04-27T02:21:42.196Z,100
2023-04-27T02:22:42.048Z,100
2023-04-27T02:23:42.045Z,100
2023-04-27T02:24:43.461Z,100
2023-04-27T02:25:47.026Z,100
2023-04-27T02:26:48.246Z,100
2023-04-27T02:28:42.042Z,100
2023-04-27T02:29:42.086Z,100
2023-04-27T02:30:42.073Z,100
2023-04-27T02:31:42.061Z,100
2023-04-27T02:32:42.080Z,100
2023-04-27T02:33:42.054Z,100
2023-04-27T02:34:42.120Z,100
2023-04-27T02:35:42.074Z,100
2023-04-27T02:36:42.052Z,100
2023-04-27T02:37:42.049Z,100
2023-04-27T02:38:42.357Z,100
2023-04-27T02:39:42.055Z,100
2023-04-27T02:40:42.075Z,100
2023-04-27T02:41:42.057Z,100
2023-04-27T02:42:42.064Z,100
2023-04-27T02:43:42.053Z,100
2023-04-27T02:44:42.062Z,100
2023-04-27T02:45:42.075Z,100
2023-04-27T02:46:43.733Z,100
2023-04-27T02:47:47.100Z,100
2023-04-27T02:48:49.308Z,100
2023-04-27T02:50:42.070Z,100
2023-04-27T02:51:42.042Z,100
2023-04-27T02:52:42.057Z,100
2023-04-27T02:53:42.097Z,100
2023-04-27T02:54:42.056Z,100
2023-04-27T02:55:42.085Z,100
2023-04-27T02:56:42.051Z,100
2023-04-27T02:57:42.052Z,100
2023-04-27T02:58:42.056Z,100
2023-04-27T02:59:42.212Z,100
2023-04-27T03:00:42.103Z,100
2023-04-27T03:01:42.108Z,100
2023-04-27T03:02:42.141Z,100
2023-04-27T03:03:42.168Z,100
2023-04-27T03:04:42.140Z,100
2023-04-27T03:05:42.057Z,100
2023-04-27T03:06:42.054Z,100
2023-04-27T03:07:43.779Z,100
2023-04-27T03:08:47.223Z,100
2023-04-27T03:09:49.359Z,100
2023-04-27T03:11:42.122Z,100
2023-04-27T03:12:42.053Z,100
2023-04-27T03:13:42.208Z,100
2023-04-27T03:14:42.146Z,100
2023-04-27T03:15:42.066Z,100
2023-04-27T03:16:42.065Z,100
2023-04-27T03:17:42.072Z,100
2023-04-27T03:18:42.051Z,100
2023-04-27T03:19:42.056Z,100
2023-04-27T03:20:42.096Z,100
2023-04-27T03:21:42.050Z,100
2023-04-27T03:22:42.054Z,100
2023-04-27T03:23:42.046Z,100
2023-04-27T03:24:42.050Z,100
2023-04-27T03:25:42.067Z,100
2023-04-27T03:26:42.046Z,100
2023-04-27T03:27:42.051Z,100
2023-04-27T03:28:43.862Z,100
2023-04-27T03:29:47.240Z,100
2023-04-27T03:30:49.442Z,100
2023-04-27T03:32:42.184Z,100
2023-04-27T03:33:42.122Z,100
2023-04-27T03:34:42.053Z,100
2023-04-27T03:35:42.159Z,100
2023-04-27T03:36:42.047Z,100
2023-04-27T03:37:42.077Z,100
2023-04-27T03:38:42.045Z,100
2023-04-27T03:39:42.063Z,100
2023-04-27T03:40:42.051Z,100
2023-04-27T03:41:42.074Z,100
2023-04-27T03:42:42.101Z,100
2023-04-27T03:43:42.057Z,100
2023-04-27T03:44:42.046Z,100
2023-04-27T03:45:42.133Z,100
2023-04-27T03:46:42.044Z,100
2023-04-27T03:47:42.551Z,100
2023-04-27T03:48:42.494Z,100
2023-04-27T03:49:43.871Z,100
2023-04-27T03:50:47.504Z,100
2023-04-27T03:51:49.516Z,100
2023-04-27T03:53:42.057Z,100
2023-04-27T03:54:42.049Z,100
2023-04-27T03:55:42.091Z,100
2023-04-27T03:56:42.064Z,100
2023-04-27T03:57:42.048Z,100
2023-04-27T03:58:42.054Z,100
2023-04-27T03:59:42.050Z,100
2023-04-27T04:00:42.210Z,100
2023-04-27T04:01:42.080Z,100
2023-04-27T04:02:42.147Z,100
2023-04-27T04:03:42.180Z,100
2023-04-27T04:04:42.296Z,100
2023-04-27T04:05:42.077Z,100
2023-04-27T04:06:42.048Z,100
2023-04-27T04:07:42.055Z,100
2023-04-27T04:08:42.051Z,100
2023-04-27T04:09:42.063Z,100
2023-04-27T04:10:44.034Z,100
2023-04-27T04:11:47.421Z,100
2023-04-27T04:12:49.635Z,100
2023-04-27T04:14:42.050Z,100
2023-04-27T04:15:42.063Z,100
2023-04-27T04:16:42.059Z,100
2023-04-27T04:17:42.073Z,100
2023-04-27T04:18:42.065Z,100
2023-04-27T04:19:42.060Z,100
2023-04-27T04:20:42.059Z,100
2023-04-27T04:21:42.194Z,100
2023-04-27T04:22:42.059Z,100
2023-04-27T04:23:42.052Z,100
2023-04-27T04:24:42.086Z,100
2023-04-27T04:25:42.058Z,100
2023-04-27T04:26:42.055Z,100
2023-04-27T04:27:42.058Z,100
2023-04-27T04:28:42.069Z,100
2023-04-27T04:29:42.052Z,100
2023-04-27T04:30:42.048Z,100
2023-04-27T04:31:44.201Z,100
2023-04-27T04:32:47.068Z,100
2023-04-27T04:33:49.759Z,100
2023-04-27T04:35:42.054Z,100
2023-04-27T04:36:42.061Z,100
2023-04-27T04:37:42.065Z,100
2023-04-27T04:38:42.048Z,100
2023-04-27T04:39:42.060Z,100
2023-04-27T04:40:43.191Z,100
2023-04-27T04:41:42.065Z,100
2023-04-27T04:42:42.056Z,100
2023-04-27T04:43:42.060Z,100
2023-04-27T04:44:42.078Z,100
2023-04-27T04:45:42.077Z,100
2023-04-27T04:46:42.098Z,100
2023-04-27T04:47:42.053Z,100
2023-04-27T04:48:42.058Z,100
2023-04-27T04:49:42.054Z,100
2023-04-27T04:50:42.102Z,100
2023-04-27T04:51:42.084Z,100
2023-04-27T04:52:44.221Z,100
2023-04-27T04:53:47.206Z,100
2023-04-27T04:54:49.948Z,100
2023-04-27T04:56:42.074Z,100
2023-04-27T04:57:42.093Z,100
2023-04-27T04:58:42.080Z,100
2023-04-27T04:59:42.061Z,100
2023-04-27T05:00:42.060Z,100
2023-04-27T05:01:42.088Z,100
2023-04-27T05:02:42.179Z,100
2023-04-27T05:03:42.146Z,100
2023-04-27T05:04:42.118Z,100
2023-04-27T05:05:42.077Z,100
2023-04-27T05:06:42.090Z,100
2023-04-27T05:07:42.088Z,100
2023-04-27T05:08:42.053Z,100
2023-04-27T05:09:42.079Z,100
2023-04-27T05:10:42.071Z,100
2023-04-27T05:11:42.101Z,100
2023-04-27T05:12:42.076Z,100
2023-04-27T05:13:44.330Z,100
2023-04-27T05:14:47.188Z,100
2023-04-27T05:15:50.293Z,100
2023-04-27T05:17:42.089Z,100
2023-04-27T05:18:42.056Z,100
2023-04-27T05:19:42.086Z,100
2023-04-27T05:20:42.133Z,100
2023-04-27T05:21:42.080Z,100
2023-04-27T05:22:42.117Z,100
2023-04-27T05:23:42.096Z,100
2023-04-27T05:24:42.074Z,100
2023-04-27T05:25:42.073Z,100
2023-04-27T05:26:42.046Z,100
2023-04-27T05:27:42.068Z,100
2023-04-27T05:28:42.112Z,100
2023-04-27T05:29:42.120Z,100
2023-04-27T05:30:42.085Z,100
2023-04-27T05:31:42.101Z,100
2023-04-27T05:32:42.075Z,100
2023-04-27T05:33:42.079Z,100
2023-04-27T05:34:44.607Z,100
2023-04-27T05:35:47.344Z,100
2023-04-27T05:36:48.974Z,100
2023-04-27T05:37:42.060Z,100
2023-04-27T05:38:42.320Z,100
2023-04-27T05:39:42.087Z,100
2023-04-27T05:40:42.102Z,100
2023-04-27T05:41:42.108Z,100
2023-04-27T05:42:42.045Z,100
2023-04-27T05:43:42.067Z,100
2023-04-27T05:44:42.068Z,100
2023-04-27T05:45:42.072Z,100
2023-04-27T05:46:42.116Z,100
2023-04-27T05:47:42.082Z,100
2023-04-27T05:48:42.051Z,100
2023-04-27T05:49:42.045Z,100
2023-04-27T05:50:42.066Z,100
2023-04-27T05:51:42.071Z,100
2023-04-27T05:52:42.080Z,100
2023-04-27T05:53:42.063Z,100
2023-04-27T05:54:42.124Z,100
2023-04-27T05:55:44.485Z,100
2023-04-27T05:56:47.479Z,100
2023-04-27T05:57:54.429Z,100
2023-04-27T05:58:42.077Z,100
2023-04-27T05:59:42.049Z,100
2023-04-27T06:00:42.068Z,100
2023-04-27T06:01:42.070Z,100
2023-04-27T06:02:42.163Z,100
2023-04-27T06:03:42.164Z,100
2023-04-27T06:04:42.072Z,100
2023-04-27T06:05:42.153Z,100
2023-04-27T06:06:42.054Z,100
2023-04-27T06:07:42.051Z,100
2023-04-27T06:08:42.052Z,100
2023-04-27T06:09:42.052Z,100
2023-04-27T06:10:42.063Z,100
2023-04-27T06:11:42.060Z,100
2023-04-27T06:12:42.735Z,100
2023-04-27T06:13:42.098Z,100
2023-04-27T06:14:42.058Z,100
2023-04-27T06:15:42.170Z,100
2023-04-27T06:16:42.532Z,100
2023-04-27T06:17:46.103Z,100
2023-04-27T06:18:48.275Z,100
2023-04-27T06:20:42.068Z,100
2023-04-27T06:21:42.053Z,100
2023-04-27T06:22:42.063Z,100
2023-04-27T06:23:42.100Z,100
2023-04-27T06:24:42.065Z,100
2023-04-27T06:25:42.060Z,100
2023-04-27T06:26:42.073Z,100
2023-04-27T06:27:42.067Z,100
2023-04-27T06:28:42.091Z,100
2023-04-27T06:29:42.060Z,100
2023-04-27T06:30:42.070Z,100
2023-04-27T06:31:42.119Z,100
2023-04-27T06:32:42.087Z,100
2023-04-27T06:33:42.057Z,100
2023-04-27T06:34:42.054Z,100
2023-04-27T06:35:42.052Z,100
2023-04-27T06:36:42.064Z,100
2023-04-27T06:37:42.615Z,100
2023-04-27T06:38:46.190Z,100
2023-04-27T06:39:49.057Z,100
2023-04-27T06:41:42.091Z,100
2023-04-27T06:42:42.052Z,100
2023-04-27T06:43:42.053Z,100
2023-04-27T06:44:42.059Z,100
2023-04-27T06:45:42.060Z,100
2023-04-27T06:46:42.121Z,100
2023-04-27T06:47:42.086Z,100
2023-04-27T06:48:42.063Z,100
2023-04-27T06:49:42.064Z,100
2023-04-27T06:50:42.054Z,100
2023-04-27T06:51:42.074Z,100
2023-04-27T06:52:42.071Z,100
2023-04-27T06:53:42.051Z,100
2023-04-27T06:54:42.058Z,100
2023-04-27T06:55:48.593Z,100
2023-04-27T06:57:42.057Z,100
2023-04-27T06:58:42.660Z,100
2023-04-27T06:59:45.610Z,100
2023-04-27T07:00:49.292Z,100
2023-04-27T07:02:42.115Z,100
2023-04-27T07:03:42.197Z,100
2023-04-27T07:04:42.110Z,100
2023-04-27T07:05:42.103Z,100
2023-04-27T07:06:42.055Z,100
2023-04-27T07:07:42.056Z,100
2023-04-27T07:08:42.060Z,100
2023-04-27T07:09:42.052Z,100
2023-04-27T07:10:42.066Z,100
2023-04-27T07:11:42.051Z,100
2023-04-27T07:12:42.070Z,100
2023-04-27T07:13:42.051Z,100
2023-04-27T07:14:42.062Z,100
2023-04-27T07:15:42.128Z,100
2023-04-27T07:16:42.068Z,100
2023-04-27T07:17:42.117Z,100
2023-04-27T07:18:45.052Z,100
2023-04-27T07:20:46.222Z,100
2023-04-27T07:21:49.182Z,100
2023-04-27T07:23:42.086Z,100
2023-04-27T07:24:42.061Z,100
2023-04-27T07:25:42.065Z,100
2023-04-27T07:26:42.066Z,100
2023-04-27T07:27:42.064Z,100
2023-04-27T07:28:42.058Z,100
2023-04-27T07:29:42.056Z,100
2023-04-27T07:30:42.069Z,100
2023-04-27T07:31:42.070Z,100
2023-04-27T07:32:42.077Z,100
2023-04-27T07:33:42.049Z,100
2023-04-27T07:34:53.167Z,100
2023-04-27T07:36:42.060Z,100
2023-04-27T07:37:42.060Z,100
2023-04-27T07:38:42.067Z,100
2023-04-27T07:39:42.055Z,100
2023-04-27T07:40:44.812Z,100
2023-04-27T07:41:46.361Z,100
2023-04-27T07:42:49.426Z,100
2023-04-27T07:44:42.069Z,100
2023-04-27T07:45:42.082Z,100
2023-04-27T07:46:42.041Z,100
2023-04-27T07:47:42.079Z,100
2023-04-27T07:48:42.193Z,100
2023-04-27T07:49:42.052Z,100
2023-04-27T07:50:42.046Z,100
2023-04-27T07:51:42.114Z,100
2023-04-27T07:52:42.058Z,100
2023-04-27T07:53:42.063Z,100
2023-04-27T07:54:42.047Z,100
2023-04-27T07:55:42.057Z,100
2023-04-27T07:56:42.061Z,100
2023-04-27T07:57:42.050Z,100
2023-04-27T07:58:42.062Z,100
2023-04-27T07:59:42.059Z,100
2023-04-27T08:00:42.048Z,100
2023-04-27T08:01:43.071Z,100
2023-04-27T08:02:46.627Z,100
2023-04-27T08:03:48.952Z,100
2023-04-27T08:05:42.302Z,100
2023-04-27T08:06:43.281Z,100
2023-04-27T08:07:45.718Z,100
2023-04-27T08:08:42.076Z,100
2023-04-27T08:09:42.242Z,100
2023-04-27T08:10:42.042Z,100
2023-04-27T08:11:42.069Z,100
2023-04-27T08:12:42.085Z,100
2023-04-27T08:13:42.042Z,100
2023-04-27T08:14:42.074Z,100
2023-04-27T08:15:42.136Z,100
2023-04-27T08:16:42.091Z,100
2023-04-27T08:17:42.196Z,100
2023-04-27T08:18:42.050Z,100
2023-04-27T08:19:42.057Z,100
2023-04-27T08:20:42.052Z,100
2023-04-27T08:21:42.087Z,100
2023-04-27T08:22:43.072Z,100
2023-04-27T08:23:46.599Z,100
2023-04-27T08:24:48.867Z,100
2023-04-27T08:26:42.095Z,100
2023-04-27T08:27:42.058Z,100
2023-04-27T08:28:42.063Z,100
2023-04-27T08:29:42.050Z,100
2023-04-27T08:30:42.056Z,100
2023-04-27T08:31:42.105Z,100
2023-04-27T08:32:42.119Z,100
2023-04-27T08:33:42.045Z,100
2023-04-27T08:34:42.057Z,100
2023-04-27T08:35:42.079Z,100
2023-04-27T08:36:42.140Z,100
2023-04-27T08:37:42.046Z,100
2023-04-27T08:38:42.042Z,100
2023-04-27T08:39:42.048Z,100
2023-04-27T08:40:42.118Z,100
2023-04-27T08:41:42.048Z,100
2023-04-27T08:42:42.049Z,100
2023-04-27T08:43:43.202Z,100
2023-04-27T08:44:46.751Z,100
2023-04-27T08:45:48.994Z,100
2023-04-27T08:47:45.110Z,100
2023-04-27T08:49:42.067Z,100
2023-04-27T08:50:42.091Z,100
2023-04-27T08:51:42.047Z,100
2023-04-27T08:52:42.048Z,100
2023-04-27T08:53:42.061Z,100
2023-04-27T08:54:42.054Z,100
2023-04-27T08:55:42.061Z,100
2023-04-27T08:56:42.071Z,100
2023-04-27T08:57:42.050Z,100
2023-04-27T08:58:42.056Z,100
2023-04-27T08:59:42.055Z,100
2023-04-27T09:00:42.068Z,100
2023-04-27T09:01:42.103Z,100
2023-04-27T09:02:42.224Z,100
2023-04-27T09:03:42.134Z,100
2023-04-27T09:04:42.191Z,98.99
2023-04-27T09:06:00.524Z,96.93
2023-04-27T09:06:46.902Z,92.98
2023-04-27T09:07:48.368Z,91.55
2023-04-27T09:09:42.061Z,95.05
2023-04-27T09:10:42.076Z,95.77
2023-04-27T09:11:42.058Z,96.24
2023-04-27T09:12:42.073Z,95.72
2023-04-27T09:13:42.092Z,91.45
2023-04-27T09:14:42.055Z,88.32
2023-04-27T09:15:42.055Z,90.77
2023-04-27T09:16:42.113Z,89.37
2023-04-27T09:17:42.082Z,88.4
2023-04-27T09:18:42.064Z,82.82
2023-04-27T09:19:42.057Z,83.14
2023-04-27T09:20:42.069Z,80.36
2023-04-27T09:21:42.044Z,78.56
2023-04-27T09:22:42.070Z,79.3
2023-04-27T09:23:42.051Z,80.93
2023-04-27T09:24:42.057Z,81.38
2023-04-27T09:25:42.055Z,82.89
2023-04-27T09:26:43.456Z,83.3
2023-04-27T09:27:46.634Z,77.89
2023-04-27T09:28:47.523Z,80.49
2023-04-27T09:30:42.054Z,78.56
2023-04-27T09:31:42.095Z,83.66
2023-04-27T09:32:42.109Z,80.27
2023-04-27T09:33:42.058Z,75.71
2023-04-27T09:34:42.061Z,72.95
2023-04-27T09:35:42.070Z,71.53
2023-04-27T09:36:42.056Z,72.28
2023-04-27T09:37:42.091Z,68.94
2023-04-27T09:38:42.057Z,69.03
2023-04-27T09:39:42.062Z,69.89
2023-04-27T09:40:42.054Z,70.64
2023-04-27T09:41:42.040Z,71.64
2023-04-27T09:42:42.072Z,70.85
2023-04-27T09:43:42.055Z,72.74
2023-04-27T09:44:42.054Z,73.3
2023-04-27T09:45:42.078Z,80.31
2023-04-27T09:46:42.048Z,79.67
2023-04-27T09:47:43.603Z,77.44
2023-04-27T09:48:47.181Z,71
2023-04-27T09:49:49.341Z,71.03
2023-04-27T09:51:42.116Z,72.7
2023-04-27T09:52:42.068Z,78.18
2023-04-27T09:53:42.046Z,74.22
2023-04-27T09:54:42.063Z,74.94
2023-04-27T09:55:42.056Z,73.64
2023-04-27T09:56:42.061Z,72.32
2023-04-27T09:57:42.065Z,71.48
2023-04-27T09:58:42.051Z,72.74
2023-04-27T09:59:42.073Z,72.4
2023-04-27T10:00:42.049Z,71.91
2023-04-27T10:01:42.296Z,71.16
2023-04-27T10:02:52.949Z,72.24
2023-04-27T10:03:42.110Z,72.3
2023-04-27T10:04:42.313Z,72.25
2023-04-27T10:05:42.065Z,73.17
2023-04-27T10:06:42.084Z,69.54
2023-04-27T10:07:42.056Z,72.8
2023-04-27T10:08:43.632Z,70.45
2023-04-27T10:09:47.213Z,73.25
2023-04-27T10:10:49.426Z,71.25
2023-04-27T10:12:42.126Z,68.41
2023-04-27T10:13:42.062Z,72.55
2023-04-27T10:14:42.044Z,72.82
2023-04-27T10:15:42.048Z,68.67
2023-04-27T10:16:42.073Z,65.34
2023-04-27T10:17:42.090Z,63.87
2023-04-27T10:18:42.059Z,66.25
2023-04-27T10:19:42.058Z,66.42
2023-04-27T10:20:42.064Z,62.99
2023-04-27T10:21:42.069Z,63.43
2023-04-27T10:22:42.054Z,65.92
2023-04-27T10:23:42.055Z,68.77
2023-04-27T10:24:42.054Z,67.36
2023-04-27T10:25:42.138Z,66.24
2023-04-27T10:26:42.050Z,66.32
2023-04-27T10:27:42.064Z,65.05
2023-04-27T10:28:42.069Z,68.24
2023-04-27T10:29:43.770Z,67.68
2023-04-27T10:30:47.266Z,68.74
2023-04-27T10:31:49.433Z,68.52
2023-04-27T10:33:42.200Z,68.52
2023-04-27T10:34:42.052Z,68.52
2023-04-27T10:35:42.050Z,71.94
2023-04-27T10:36:42.147Z,71.53
2023-04-27T10:37:42.055Z,70.79
2023-04-27T10:38:42.111Z,68.64
2023-04-27T10:39:48.929Z,66.28
2023-04-27T10:40:42.105Z,66.28
2023-04-27T10:41:42.068Z,64.1
2023-04-27T10:42:42.068Z,63.53
2023-04-27T10:43:42.065Z,66.97
2023-04-27T10:44:42.054Z,60.55
2023-04-27T10:45:42.057Z,62.29
2023-04-27T10:46:42.097Z,61.68
2023-04-27T10:47:42.081Z,59.3
2023-04-27T10:48:42.054Z,60.46
2023-04-27T10:49:42.055Z,61.66
2023-04-27T10:50:43.832Z,61.89
2023-04-27T10:51:47.431Z,62.77
2023-04-27T10:52:49.608Z,65.87
2023-04-27T10:54:42.063Z,68.28
2023-04-27T10:55:42.067Z,67.02
2023-04-27T10:56:42.067Z,67.02
2023-04-27T10:57:42.116Z,67.02
2023-04-27T10:58:49.165Z,63.38
2023-04-27T10:59:42.065Z,60.59
2023-04-27T11:00:42.067Z,60.39
2023-04-27T11:01:42.101Z,59.63
2023-04-27T11:02:43.134Z,59.96
2023-04-27T11:04:42.095Z,58.16
2023-04-27T11:05:42.094Z,61.62
2023-04-27T11:06:42.116Z,58.59
2023-04-27T11:07:42.072Z,60.3
2023-04-27T11:08:42.050Z,62.12
2023-04-27T11:09:42.062Z,59.38
2023-04-27T11:10:42.068Z,66
2023-04-27T11:11:44.024Z,64.32
2023-04-27T11:12:46.938Z,58.21
2023-04-27T11:13:49.194Z,58.82
2023-04-27T11:15:42.076Z,55.51
2023-04-27T11:16:42.113Z,55.21
2023-04-27T11:17:42.047Z,57.09
2023-04-27T11:18:42.090Z,56.83
2023-04-27T11:19:42.060Z,57.2
2023-04-27T11:20:42.048Z,56.56
2023-04-27T11:21:42.169Z,57.29
2023-04-27T11:22:42.083Z,58.87
2023-04-27T11:23:42.306Z,62.17
2023-04-27T11:24:42.053Z,59.55
2023-04-27T11:25:42.451Z,58.38
2023-04-27T11:26:42.255Z,58.64
2023-04-27T11:27:42.074Z,59.91
2023-04-27T11:28:42.079Z,59.53
2023-04-27T11:29:42.059Z,60.87
2023-04-27T11:30:42.065Z,61.85
2023-04-27T11:31:42.158Z,62.7
2023-04-27T11:32:44.053Z,59.28
2023-04-27T11:33:46.978Z,61.58
2023-04-27T11:34:49.749Z,62.04
2023-04-27T11:36:42.051Z,59.77
2023-04-27T11:37:42.055Z,58.97
2023-04-27T11:38:42.064Z,57.82
2023-04-27T11:39:42.063Z,56.99
2023-04-27T11:40:42.055Z,58.27
2023-04-27T11:41:42.071Z,57.84
2023-04-27T11:42:42.056Z,59.96
2023-04-27T11:43:42.061Z,58.9
2023-04-27T11:44:42.046Z,59.38
2023-04-27T11:45:42.050Z,60.08
2023-04-27T11:46:42.114Z,59.15
2023-04-27T11:47:42.065Z,60.31
2023-04-27T11:48:42.137Z,59.06
2023-04-27T11:49:42.078Z,60
2023-04-27T11:50:42.081Z,61.02
2023-04-27T11:51:42.047Z,62.28
2023-04-27T11:52:42.069Z,60.21
2023-04-27T11:53:42.061Z,60.93
2023-04-27T11:54:44.107Z,61.46
2023-04-27T11:55:47.272Z,59.21
2023-04-27T11:56:48.741Z,61.25
2023-04-27T11:57:42.070Z,59.77
2023-04-27T11:58:42.590Z,61.02
2023-04-27T11:59:42.107Z,59.71
2023-04-27T12:00:42.073Z,57.86
2023-04-27T12:01:42.065Z,58.54
2023-04-27T12:02:42.277Z,60.03
2023-04-27T12:03:42.099Z,58.97
2023-04-27T12:04:42.199Z,57.77
2023-04-27T12:05:42.058Z,61.38
2023-04-27T12:06:42.048Z,59.52
2023-04-27T12:07:42.070Z,59.15
2023-04-27T12:08:42.056Z,56.07
2023-04-27T12:09:42.056Z,54.79
2023-04-27T12:10:42.233Z,55.78
2023-04-27T12:11:42.046Z,59.53
2023-04-27T12:12:42.066Z,59.58
2023-04-27T12:13:42.385Z,60.62
2023-04-27T12:14:42.046Z,60.23
2023-04-27T12:15:44.479Z,58.14
2023-04-27T12:16:47.337Z,56.01
2023-04-27T12:17:48.852Z,56.3
2023-04-27T12:18:42.053Z,57.61
2023-04-27T12:19:42.051Z,56.92
2023-04-27T12:20:42.066Z,55.17
2023-04-27T12:21:42.062Z,54.75
2023-04-27T12:22:42.072Z,53.23
2023-04-27T12:23:42.054Z,55.83
2023-04-27T12:24:42.046Z,56.51
2023-04-27T12:25:42.057Z,58.75
2023-04-27T12:26:42.051Z,55.83
2023-04-27T12:27:42.150Z,57.39
2023-04-27T12:28:42.053Z,56.75
2023-04-27T12:29:42.359Z,58.35
2023-04-27T12:30:42.099Z,58.79
2023-04-27T12:31:42.087Z,58.1
2023-04-27T12:32:42.078Z,58.94
2023-04-27T12:33:42.059Z,58.99
2023-04-27T12:34:42.065Z,57.22
2023-04-27T12:35:42.389Z,56.92
2023-04-27T12:36:44.564Z,56.84
2023-04-27T12:37:47.442Z,58.74
2023-04-27T12:38:48.377Z,58.13
2023-04-27T12:39:42.049Z,57.94
2023-04-27T12:40:42.060Z,57.26
2023-04-27T12:41:42.045Z,57.11
2023-04-27T12:42:42.072Z,58.46
2023-04-27T12:43:42.464Z,58.02
2023-04-27T12:44:42.059Z,60.07
2023-04-27T12:45:42.051Z,61.32
2023-04-27T12:46:42.096Z,61.07
2023-04-27T12:47:58.575Z,59.44
2023-04-27T12:49:42.054Z,59.15
2023-04-27T12:50:42.054Z,59.8
2023-04-27T12:51:42.052Z,59.29
2023-04-27T12:52:42.076Z,59.01
2023-04-27T12:53:42.431Z,59.75
2023-04-27T12:54:42.091Z,57.18
2023-04-27T12:55:42.047Z,57.31
2023-04-27T12:56:42.141Z,58.14
2023-04-27T12:57:44.611Z,58.16
2023-04-27T12:58:47.494Z,58.59
2023-04-27T12:59:48.378Z,59.32
2023-04-27T13:00:42.072Z,58.35
2023-04-27T13:01:42.086Z,58.85
2023-04-27T13:02:42.245Z,57.91
2023-04-27T13:03:42.140Z,57.64
2023-04-27T13:04:42.248Z,58.43
2023-04-27T13:05:42.296Z,59.6
2023-04-27T13:06:42.046Z,59.92
2023-04-27T13:07:42.062Z,59.75
2023-04-27T13:08:42.051Z,61.8
2023-04-27T13:09:42.051Z,63.38
2023-04-27T13:10:42.117Z,62.36
2023-04-27T13:11:42.041Z,61.65
2023-04-27T13:12:42.048Z,62.36
2023-04-27T13:13:42.042Z,60.14
2023-04-27T13:14:42.052Z,59.71
2023-04-27T13:15:42.209Z,59.53
2023-04-27T13:16:42.098Z,58.71
2023-04-27T13:17:44.090Z,58.98
2023-04-27T13:18:44.501Z,58.21
2023-04-27T13:19:47.559Z,60.01
2023-04-27T13:20:48.521Z,61.18
2023-04-27T13:21:42.046Z,60.39
2023-04-27T13:22:42.130Z,61.45
2023-04-27T13:23:42.104Z,61.33
2023-04-27T13:24:42.061Z,61.4
2023-04-27T13:25:42.090Z,65.96
2023-04-27T13:26:42.043Z,64.56
2023-04-27T13:27:42.054Z,62.88
2023-04-27T13:28:42.065Z,60.39
2023-04-27T13:29:42.044Z,59.43
2023-04-27T13:30:42.076Z,58.68
2023-04-27T13:31:42.093Z,60.23
2023-04-27T13:32:42.090Z,62.18
2023-04-27T13:33:42.053Z,62.1
2023-04-27T13:34:42.050Z,62.82
2023-04-27T13:35:42.067Z,60.12
2023-04-27T13:36:42.057Z,60.64
2023-04-27T13:37:42.050Z,60.97
2023-04-27T13:38:42.318Z,59.94
2023-04-27T13:39:44.636Z,61.15
2023-04-27T13:40:47.816Z,61.13
2023-04-27T13:41:48.631Z,60.06
2023-04-27T13:42:42.084Z,60.52
2023-04-27T13:43:42.185Z,60.36
2023-04-27T13:44:42.052Z,62.27
2023-04-27T13:45:42.051Z,62.88
2023-04-27T13:46:42.129Z,62.94
2023-04-27T13:47:42.070Z,65
2023-04-27T13:48:42.050Z,63.46
2023-04-27T13:49:42.135Z,62.33
2023-04-27T13:50:42.055Z,62.07
2023-04-27T13:51:42.069Z,64.11
2023-04-27T13:52:42.067Z,60.92
2023-04-27T13:53:42.049Z,63.09
2023-04-27T13:54:42.063Z,64.37
2023-04-27T13:55:42.048Z,60.8
2023-04-27T13:56:42.076Z,66.05
2023-04-27T13:57:42.053Z,60.69
2023-04-27T13:58:42.054Z,59.3
2023-04-27T13:59:42.508Z,59.7
2023-04-27T14:00:44.956Z,61.8
2023-04-27T14:01:48.039Z,60.55
2023-04-27T14:02:48.825Z,60.35
2023-04-27T14:03:52.135Z,60.65
2023-04-27T14:05:42.043Z,61.04
2023-04-27T14:06:42.052Z,62.11